sensor_id;sensor_type;location;lat;lon;timestamp;P1;durP1;ratioP1;P2;durP2;ratioP2
36501;SDS011;25393;46.108;3.390;2022-12-18T00:01:34;30.40;;;11.17;;
36501;SDS011;25393;46.108;3.390;2022-12-18T00:04:05;21.73;;;9.67;;
36501;SDS011;25393;46.108;3.390;2022-12-18T00:06:34;22.77;;;9.83;;
36501;SDS011;25393;46.108;3.390;2022-12-18T00:09:02;22.30;;;9.57;;
36501;SDS011;25393;46.108;3.390;2022-12-18T00:11:29;27.47;;;10.13;;
36501;SDS011;25393;46.108;3.390;2022-12-18T00:13:59;24.17;;;9.93;;
36501;SDS011;25393;46.108;3.390;2022-12-18T00:16:30;25.47;;;10.10;;
36501;SDS011;25393;46.108;3.390;2022-12-18T00:19:04;18.87;;;9.43;;
36501;SDS011;25393;46.108;3.390;2022-12-18T00:21:32;23.00;;;9.40;;
36501;SDS011;25393;46.108;3.390;2022-12-18T00:24:00;21.03;;;9.30;;
36501;SDS011;25393;46.108;3.390;2022-12-18T00:26:34;19.97;;;8.93;;
36501;SDS011;25393;46.108;3.390;2022-12-18T00:29:04;19.00;;;8.60;;
36501;SDS011;25393;46.108;3.390;2022-12-18T00:31:33;22.47;;;9.40;;
36501;SDS011;25393;46.108;3.390;2022-12-18T00:34:05;20.90;;;9.40;;
36501;SDS011;25393;46.108;3.390;2022-12-18T00:36:34;18.40;;;9.17;;
36501;SDS011;25393;46.108;3.390;2022-12-18T00:39:04;21.00;;;9.27;;
36501;SDS011;25393;46.108;3.390;2022-12-18T00:41:31;25.70;;;9.87;;
36501;SDS011;25393;46.108;3.390;2022-12-18T00:44:17;45.10;;;14.67;;
36501;SDS011;25393;46.108;3.390;2022-12-18T00:46:45;36.30;;;13.87;;
36501;SDS011;25393;46.108;3.390;2022-12-18T00:49:13;35.33;;;12.27;;
36501;SDS011;25393;46.108;3.390;2022-12-18T00:51:41;46.50;;;13.97;;
36501;SDS011;25393;46.108;3.390;2022-12-18T00:54:08;47.07;;;12.57;;
36501;SDS011;25393;46.108;3.390;2022-12-18T00:56:35;33.63;;;12.83;;
36501;SDS011;25393;46.108;3.390;2022-12-18T00:59:14;34.77;;;12.83;;
36501;SDS011;25393;46.108;3.390;2022-12-18T01:01:40;44.03;;;15.10;;
36501;SDS011;25393;46.108;3.390;2022-12-18T01:04:07;41.73;;;13.97;;
36501;SDS011;25393;46.108;3.390;2022-12-18T01:06:34;36.23;;;12.10;;
36501;SDS011;25393;46.108;3.390;2022-12-18T01:09:03;45.73;;;12.40;;
36501;SDS011;25393;46.108;3.390;2022-12-18T01:11:33;43.53;;;12.47;;
36501;SDS011;25393;46.108;3.390;2022-12-18T01:13:59;37.97;;;13.80;;
36501;SDS011;25393;46.108;3.390;2022-12-18T01:16:28;40.03;;;13.20;;
36501;SDS011;25393;46.108;3.390;2022-12-18T01:18:55;32.17;;;12.17;;
36501;SDS011;25393;46.108;3.390;2022-12-18T01:21:22;29.67;;;12.93;;
36501;SDS011;25393;46.108;3.390;2022-12-18T01:23:52;41.50;;;11.57;;
36501;SDS011;25393;46.108;3.390;2022-12-18T01:26:20;41.23;;;13.10;;
36501;SDS011;25393;46.108;3.390;2022-12-18T01:28:48;38.23;;;12.40;;
36501;SDS011;25393;46.108;3.390;2022-12-18T01:33:46;31.93;;;10.87;;
36501;SDS011;25393;46.108;3.390;2022-12-18T01:36:17;25.00;;;10.37;;
36501;SDS011;25393;46.108;3.390;2022-12-18T01:38:45;29.60;;;10.87;;
36501;SDS011;25393;46.108;3.390;2022-12-18T01:41:17;31.53;;;10.67;;
36501;SDS011;25393;46.108;3.390;2022-12-18T01:43:48;28.90;;;11.17;;
36501;SDS011;25393;46.108;3.390;2022-12-18T01:46:18;26.77;;;9.87;;
36501;SDS011;25393;46.108;3.390;2022-12-18T01:48:47;27.00;;;10.97;;
36501;SDS011;25393;46.108;3.390;2022-12-18T01:51:16;26.47;;;10.20;;
36501;SDS011;25393;46.108;3.390;2022-12-18T01:53:44;27.90;;;10.67;;
36501;SDS011;25393;46.108;3.390;2022-12-18T01:56:13;24.90;;;10.70;;
36501;SDS011;25393;46.108;3.390;2022-12-18T01:58:44;22.40;;;10.57;;
36501;SDS011;25393;46.108;3.390;2022-12-18T02:01:30;28.27;;;11.20;;
36501;SDS011;25393;46.108;3.390;2022-12-18T02:06:51;53.87;;;10.10;;
36501;SDS011;25393;46.108;3.390;2022-12-18T02:09:29;28.00;;;10.37;;
36501;SDS011;25393;46.108;3.390;2022-12-18T02:12:07;22.33;;;9.13;;
36501;SDS011;25393;46.108;3.390;2022-12-18T02:14:44;33.57;;;9.70;;
36501;SDS011;25393;46.108;3.390;2022-12-18T02:17:14;61.40;;;10.43;;
36501;SDS011;25393;46.108;3.390;2022-12-18T02:27:59;41.27;;;11.27;;
36501;SDS011;25393;46.108;3.390;2022-12-18T02:30:31;41.70;;;11.50;;
36501;SDS011;25393;46.108;3.390;2022-12-18T02:32:59;40.20;;;12.90;;
36501;SDS011;25393;46.108;3.390;2022-12-18T02:35:34;50.60;;;12.67;;
36501;SDS011;25393;46.108;3.390;2022-12-18T02:38:03;51.93;;;11.60;;
36501;SDS011;25393;46.108;3.390;2022-12-18T02:40:33;77.83;;;14.63;;
36501;SDS011;25393;46.108;3.390;2022-12-18T02:43:08;87.53;;;13.10;;
36501;SDS011;25393;46.108;3.390;2022-12-18T02:45:53;80.80;;;12.47;;
36501;SDS011;25393;46.108;3.390;2022-12-18T02:48:23;81.27;;;14.80;;
36501;SDS011;25393;46.108;3.390;2022-12-18T02:51:08;69.87;;;12.67;;
36501;SDS011;25393;46.108;3.390;2022-12-18T02:53:44;76.87;;;14.50;;
36501;SDS011;25393;46.108;3.390;2022-12-18T02:56:19;116.43;;;14.10;;
36501;SDS011;25393;46.108;3.390;2022-12-18T03:03:59;107.20;;;12.87;;
36501;SDS011;25393;46.108;3.390;2022-12-18T03:06:37;62.03;;;12.27;;
36501;SDS011;25393;46.108;3.390;2022-12-18T03:09:09;75.50;;;14.57;;
36501;SDS011;25393;46.108;3.390;2022-12-18T03:11:40;105.83;;;12.33;;
36501;SDS011;25393;46.108;3.390;2022-12-18T03:14:29;109.73;;;13.93;;
36501;SDS011;25393;46.108;3.390;2022-12-18T03:16:59;65.93;;;12.43;;
36501;SDS011;25393;46.108;3.390;2022-12-18T03:19:32;84.80;;;14.07;;
36501;SDS011;25393;46.108;3.390;2022-12-18T03:22:00;40.80;;;12.80;;
36501;SDS011;25393;46.108;3.390;2022-12-18T03:24:29;85.23;;;12.27;;
36501;SDS011;25393;46.108;3.390;2022-12-18T03:27:02;40.30;;;10.83;;
36501;SDS011;25393;46.108;3.390;2022-12-18T03:29:47;39.53;;;10.87;;
36501;SDS011;25393;46.108;3.390;2022-12-18T03:32:25;37.27;;;10.93;;
36501;SDS011;25393;46.108;3.390;2022-12-18T03:34:59;38.77;;;10.80;;
36501;SDS011;25393;46.108;3.390;2022-12-18T03:37:32;34.10;;;10.53;;
36501;SDS011;25393;46.108;3.390;2022-12-18T03:39:59;22.00;;;10.37;;
36501;SDS011;25393;46.108;3.390;2022-12-18T03:42:29;23.30;;;9.57;;
36501;SDS011;25393;46.108;3.390;2022-12-18T03:48:00;18.57;;;8.70;;
36501;SDS011;25393;46.108;3.390;2022-12-18T03:53:52;21.57;;;8.27;;
36501;SDS011;25393;46.108;3.390;2022-12-18T03:56:25;21.73;;;8.80;;
36501;SDS011;25393;46.108;3.390;2022-12-18T03:58:57;21.73;;;8.03;;
36501;SDS011;25393;46.108;3.390;2022-12-18T04:01:33;17.53;;;7.93;;
36501;SDS011;25393;46.108;3.390;2022-12-18T04:04:02;17.77;;;8.17;;
36501;SDS011;25393;46.108;3.390;2022-12-18T04:06:31;18.30;;;8.30;;
36501;SDS011;25393;46.108;3.390;2022-12-18T04:09:04;15.57;;;7.40;;
36501;SDS011;25393;46.108;3.390;2022-12-18T04:11:34;16.90;;;7.60;;
36501;SDS011;25393;46.108;3.390;2022-12-18T04:14:04;20.43;;;8.17;;
36501;SDS011;25393;46.108;3.390;2022-12-18T04:16:32;16.60;;;7.63;;
36501;SDS011;25393;46.108;3.390;2022-12-18T04:18:59;14.27;;;6.47;;
36501;SDS011;25393;46.108;3.390;2022-12-18T04:21:27;15.30;;;7.50;;
36501;SDS011;25393;46.108;3.390;2022-12-18T04:23:54;14.80;;;7.33;;
36501;SDS011;25393;46.108;3.390;2022-12-18T04:26:20;19.50;;;8.03;;
36501;SDS011;25393;46.108;3.390;2022-12-18T04:28:47;17.40;;;7.60;;
36501;SDS011;25393;46.108;3.390;2022-12-18T04:31:13;18.10;;;6.93;;
36501;SDS011;25393;46.108;3.390;2022-12-18T04:33:40;19.13;;;7.47;;
36501;SDS011;25393;46.108;3.390;2022-12-18T04:36:07;19.50;;;7.80;;
36501;SDS011;25393;46.108;3.390;2022-12-18T04:38:34;16.30;;;8.40;;
36501;SDS011;25393;46.108;3.390;2022-12-18T04:41:03;21.87;;;8.03;;
36501;SDS011;25393;46.108;3.390;2022-12-18T04:43:30;18.80;;;7.93;;
36501;SDS011;25393;46.108;3.390;2022-12-18T04:46:04;16.97;;;8.20;;
36501;SDS011;25393;46.108;3.390;2022-12-18T04:48:36;16.13;;;7.73;;
36501;SDS011;25393;46.108;3.390;2022-12-18T04:51:03;20.93;;;8.93;;
36501;SDS011;25393;46.108;3.390;2022-12-18T04:53:31;23.40;;;8.50;;
36501;SDS011;25393;46.108;3.390;2022-12-18T04:56:11;22.43;;;9.30;;
36501;SDS011;25393;46.108;3.390;2022-12-18T04:58:40;15.27;;;8.03;;
36501;SDS011;25393;46.108;3.390;2022-12-18T05:01:08;22.40;;;8.33;;
36501;SDS011;25393;46.108;3.390;2022-12-18T05:03:35;21.93;;;8.97;;
36501;SDS011;25393;46.108;3.390;2022-12-18T05:06:04;16.83;;;8.10;;
36501;SDS011;25393;46.108;3.390;2022-12-18T05:08:34;20.37;;;9.10;;
36501;SDS011;25393;46.108;3.390;2022-12-18T05:11:02;21.50;;;9.70;;
36501;SDS011;25393;46.108;3.390;2022-12-18T05:13:35;18.30;;;8.20;;
36501;SDS011;25393;46.108;3.390;2022-12-18T05:16:04;22.00;;;7.73;;
36501;SDS011;25393;46.108;3.390;2022-12-18T05:18:32;20.03;;;8.63;;
36501;SDS011;25393;46.108;3.390;2022-12-18T05:20:58;20.37;;;9.30;;
36501;SDS011;25393;46.108;3.390;2022-12-18T05:23:34;19.40;;;8.50;;
36501;SDS011;25393;46.108;3.390;2022-12-18T05:26:02;20.53;;;8.53;;
36501;SDS011;25393;46.108;3.390;2022-12-18T05:28:34;17.77;;;7.67;;
36501;SDS011;25393;46.108;3.390;2022-12-18T05:31:03;20.13;;;7.90;;
36501;SDS011;25393;46.108;3.390;2022-12-18T05:33:34;21.47;;;9.00;;
36501;SDS011;25393;46.108;3.390;2022-12-18T05:36:02;18.90;;;8.53;;
36501;SDS011;25393;46.108;3.390;2022-12-18T05:38:35;17.53;;;7.43;;
36501;SDS011;25393;46.108;3.390;2022-12-18T05:41:03;18.90;;;8.13;;
36501;SDS011;25393;46.108;3.390;2022-12-18T05:43:34;18.77;;;8.23;;
36501;SDS011;25393;46.108;3.390;2022-12-18T05:46:21;23.70;;;8.57;;
36501;SDS011;25393;46.108;3.390;2022-12-18T05:48:47;19.37;;;7.67;;
36501;SDS011;25393;46.108;3.390;2022-12-18T05:51:17;17.00;;;8.10;;
36501;SDS011;25393;46.108;3.390;2022-12-18T05:53:46;26.10;;;9.10;;
36501;SDS011;25393;46.108;3.390;2022-12-18T05:56:15;25.80;;;9.87;;
36501;SDS011;25393;46.108;3.390;2022-12-18T05:58:46;20.73;;;9.27;;
36501;SDS011;25393;46.108;3.390;2022-12-18T06:01:14;23.20;;;8.57;;
36501;SDS011;25393;46.108;3.390;2022-12-18T06:03:42;20.60;;;6.70;;
36501;SDS011;25393;46.108;3.390;2022-12-18T06:06:17;19.90;;;8.43;;
36501;SDS011;25393;46.108;3.390;2022-12-18T06:08:46;22.50;;;7.63;;
36501;SDS011;25393;46.108;3.390;2022-12-18T06:11:15;25.67;;;9.07;;
36501;SDS011;25393;46.108;3.390;2022-12-18T06:13:44;20.10;;;7.40;;
36501;SDS011;25393;46.108;3.390;2022-12-18T06:16:12;19.40;;;6.70;;
36501;SDS011;25393;46.108;3.390;2022-12-18T06:18:38;19.17;;;7.27;;
36501;SDS011;25393;46.108;3.390;2022-12-18T06:21:05;16.33;;;7.10;;
36501;SDS011;25393;46.108;3.390;2022-12-18T06:23:32;30.03;;;11.47;;
36501;SDS011;25393;46.108;3.390;2022-12-18T06:25:58;18.73;;;9.33;;
36501;SDS011;25393;46.108;3.390;2022-12-18T06:28:28;26.73;;;9.77;;
36501;SDS011;25393;46.108;3.390;2022-12-18T06:30:55;15.57;;;7.03;;
36501;SDS011;25393;46.108;3.390;2022-12-18T06:33:21;16.53;;;6.50;;
36501;SDS011;25393;46.108;3.390;2022-12-18T06:35:48;15.23;;;6.20;;
36501;SDS011;25393;46.108;3.390;2022-12-18T06:38:14;9.00;;;5.13;;
36501;SDS011;25393;46.108;3.390;2022-12-18T06:40:41;12.50;;;5.67;;
36501;SDS011;25393;46.108;3.390;2022-12-18T06:43:07;11.37;;;5.50;;
36501;SDS011;25393;46.108;3.390;2022-12-18T06:45:34;12.90;;;5.37;;
36501;SDS011;25393;46.108;3.390;2022-12-18T06:48:03;8.47;;;5.10;;
36501;SDS011;25393;46.108;3.390;2022-12-18T06:50:33;13.33;;;5.33;;
36501;SDS011;25393;46.108;3.390;2022-12-18T06:52:59;12.70;;;5.73;;
36501;SDS011;25393;46.108;3.390;2022-12-18T06:55:28;13.43;;;5.77;;
36501;SDS011;25393;46.108;3.390;2022-12-18T06:57:57;12.97;;;4.73;;
36501;SDS011;25393;46.108;3.390;2022-12-18T07:00:24;15.03;;;5.43;;
36501;SDS011;25393;46.108;3.390;2022-12-18T07:02:50;14.43;;;6.13;;
36501;SDS011;25393;46.108;3.390;2022-12-18T07:05:17;11.47;;;5.63;;
36501;SDS011;25393;46.108;3.390;2022-12-18T07:07:43;16.90;;;5.60;;
36501;SDS011;25393;46.108;3.390;2022-12-18T07:10:10;16.77;;;7.27;;
36501;SDS011;25393;46.108;3.390;2022-12-18T07:12:36;16.07;;;6.97;;
36501;SDS011;25393;46.108;3.390;2022-12-18T07:15:03;14.20;;;5.97;;
36501;SDS011;25393;46.108;3.390;2022-12-18T07:17:33;14.10;;;6.13;;
36501;SDS011;25393;46.108;3.390;2022-12-18T07:19:59;10.53;;;5.07;;
36501;SDS011;25393;46.108;3.390;2022-12-18T07:22:28;11.43;;;6.50;;
36501;SDS011;25393;46.108;3.390;2022-12-18T07:24:54;15.50;;;5.77;;
36501;SDS011;25393;46.108;3.390;2022-12-18T07:27:21;11.20;;;5.67;;
36501;SDS011;25393;46.108;3.390;2022-12-18T07:29:48;13.90;;;6.13;;
36501;SDS011;25393;46.108;3.390;2022-12-18T07:32:15;18.70;;;5.93;;
36501;SDS011;25393;46.108;3.390;2022-12-18T07:34:41;13.93;;;5.43;;
36501;SDS011;25393;46.108;3.390;2022-12-18T07:37:08;12.30;;;4.87;;
36501;SDS011;25393;46.108;3.390;2022-12-18T07:39:34;11.93;;;5.77;;
36501;SDS011;25393;46.108;3.390;2022-12-18T07:42:04;12.73;;;5.70;;
36501;SDS011;25393;46.108;3.390;2022-12-18T07:44:50;16.23;;;6.23;;
36501;SDS011;25393;46.108;3.390;2022-12-18T07:47:16;13.73;;;5.77;;
36501;SDS011;25393;46.108;3.390;2022-12-18T07:49:43;12.33;;;5.60;;
36501;SDS011;25393;46.108;3.390;2022-12-18T07:52:09;18.93;;;6.30;;
36501;SDS011;25393;46.108;3.390;2022-12-18T07:54:38;12.60;;;5.27;;
36501;SDS011;25393;46.108;3.390;2022-12-18T07:57:05;18.63;;;7.50;;
36501;SDS011;25393;46.108;3.390;2022-12-18T07:59:52;21.20;;;7.17;;
36501;SDS011;25393;46.108;3.390;2022-12-18T08:02:18;17.83;;;5.67;;
36501;SDS011;25393;46.108;3.390;2022-12-18T08:04:46;10.63;;;4.93;;
36501;SDS011;25393;46.108;3.390;2022-12-18T08:07:13;16.00;;;6.57;;
36501;SDS011;25393;46.108;3.390;2022-12-18T08:09:39;17.03;;;8.80;;
36501;SDS011;25393;46.108;3.390;2022-12-18T08:12:06;12.00;;;7.40;;
36501;SDS011;25393;46.108;3.390;2022-12-18T08:14:33;14.70;;;8.70;;
36501;SDS011;25393;46.108;3.390;2022-12-18T08:16:59;13.50;;;7.33;;
36501;SDS011;25393;46.108;3.390;2022-12-18T08:19:28;14.50;;;6.93;;
36501;SDS011;25393;46.108;3.390;2022-12-18T08:21:55;21.20;;;9.20;;
36501;SDS011;25393;46.108;3.390;2022-12-18T08:24:21;16.73;;;7.10;;
36501;SDS011;25393;46.108;3.390;2022-12-18T08:26:48;16.13;;;7.37;;
36501;SDS011;25393;46.108;3.390;2022-12-18T08:29:34;15.03;;;7.30;;
36501;SDS011;25393;46.108;3.390;2022-12-18T08:32:04;13.43;;;6.27;;
36501;SDS011;25393;46.108;3.390;2022-12-18T08:34:33;11.47;;;6.30;;
36501;SDS011;25393;46.108;3.390;2022-12-18T08:37:03;13.00;;;5.77;;
36501;SDS011;25393;46.108;3.390;2022-12-18T08:39:30;14.43;;;6.10;;
36501;SDS011;25393;46.108;3.390;2022-12-18T08:42:03;12.23;;;5.53;;
36501;SDS011;25393;46.108;3.390;2022-12-18T08:44:48;19.77;;;8.70;;
36501;SDS011;25393;46.108;3.390;2022-12-18T08:47:15;18.90;;;8.23;;
36501;SDS011;25393;46.108;3.390;2022-12-18T08:49:41;14.30;;;6.07;;
36501;SDS011;25393;46.108;3.390;2022-12-18T08:52:08;13.47;;;6.23;;
36501;SDS011;25393;46.108;3.390;2022-12-18T08:54:37;13.97;;;6.13;;
36501;SDS011;25393;46.108;3.390;2022-12-18T08:57:04;10.93;;;5.87;;
36501;SDS011;25393;46.108;3.390;2022-12-18T08:59:33;13.00;;;5.93;;
36501;SDS011;25393;46.108;3.390;2022-12-18T09:02:00;12.73;;;5.77;;
36501;SDS011;25393;46.108;3.390;2022-12-18T09:04:30;10.47;;;4.57;;
36501;SDS011;25393;46.108;3.390;2022-12-18T09:06:58;9.40;;;5.03;;
36501;SDS011;25393;46.108;3.390;2022-12-18T09:09:25;11.67;;;4.90;;
36501;SDS011;25393;46.108;3.390;2022-12-18T09:11:51;10.97;;;5.57;;
36501;SDS011;25393;46.108;3.390;2022-12-18T09:14:18;9.20;;;4.77;;
36501;SDS011;25393;46.108;3.390;2022-12-18T09:16:44;11.33;;;4.97;;
36501;SDS011;25393;46.108;3.390;2022-12-18T09:19:11;14.27;;;5.70;;
36501;SDS011;25393;46.108;3.390;2022-12-18T09:21:37;13.90;;;6.23;;
36501;SDS011;25393;46.108;3.390;2022-12-18T09:24:11;15.57;;;5.73;;
36501;SDS011;25393;46.108;3.390;2022-12-18T09:26:39;13.43;;;5.90;;
36501;SDS011;25393;46.108;3.390;2022-12-18T09:29:08;14.07;;;5.83;;
36501;SDS011;25393;46.108;3.390;2022-12-18T09:31:35;15.67;;;6.60;;
36501;SDS011;25393;46.108;3.390;2022-12-18T09:34:02;11.30;;;4.90;;
36501;SDS011;25393;46.108;3.390;2022-12-18T09:36:29;12.50;;;6.50;;
36501;SDS011;25393;46.108;3.390;2022-12-18T09:38:56;12.37;;;5.93;;
36501;SDS011;25393;46.108;3.390;2022-12-18T09:44:09;13.57;;;6.20;;
36501;SDS011;25393;46.108;3.390;2022-12-18T09:46:44;16.27;;;6.93;;
36501;SDS011;25393;46.108;3.390;2022-12-18T09:49:17;14.67;;;7.37;;
36501;SDS011;25393;46.108;3.390;2022-12-18T09:51:56;16.30;;;7.33;;
36501;SDS011;25393;46.108;3.390;2022-12-18T09:54:47;11.73;;;6.33;;
36501;SDS011;25393;46.108;3.390;2022-12-18T09:57:20;11.27;;;5.97;;
36501;SDS011;25393;46.108;3.390;2022-12-18T10:00:14;13.60;;;6.60;;
36501;SDS011;25393;46.108;3.390;2022-12-18T10:02:42;11.33;;;5.83;;
36501;SDS011;25393;46.108;3.390;2022-12-18T10:07:49;11.60;;;5.83;;
36501;SDS011;25393;46.108;3.390;2022-12-18T10:16:21;13.17;;;6.53;;
36501;SDS011;25393;46.108;3.390;2022-12-18T10:19:18;13.80;;;6.30;;
36501;SDS011;25393;46.108;3.390;2022-12-18T10:22:08;8.93;;;5.17;;
36501;SDS011;25393;46.108;3.390;2022-12-18T10:25:10;10.73;;;5.37;;
36501;SDS011;25393;46.108;3.390;2022-12-18T10:27:34;11.93;;;5.43;;
36501;SDS011;25393;46.108;3.390;2022-12-18T10:30:04;7.27;;;4.70;;
36501;SDS011;25393;46.108;3.390;2022-12-18T10:32:39;7.70;;;4.37;;
36501;SDS011;25393;46.108;3.390;2022-12-18T10:40:54;8.17;;;4.00;;
36501;SDS011;25393;46.108;3.390;2022-12-18T10:43:24;7.30;;;3.73;;
36501;SDS011;25393;46.108;3.390;2022-12-18T10:46:07;6.00;;;3.20;;
36501;SDS011;25393;46.108;3.390;2022-12-18T10:48:56;8.43;;;4.40;;
36501;SDS011;25393;46.108;3.390;2022-12-18T10:51:32;5.67;;;3.33;;
36501;SDS011;25393;46.108;3.390;2022-12-18T10:54:13;8.20;;;3.83;;
36501;SDS011;25393;46.108;3.390;2022-12-18T10:56:42;5.60;;;3.20;;
36501;SDS011;25393;46.108;3.390;2022-12-18T10:59:12;7.10;;;3.10;;
36501;SDS011;25393;46.108;3.390;2022-12-18T11:01:51;5.10;;;3.10;;
36501;SDS011;25393;46.108;3.390;2022-12-18T11:04:29;5.83;;;3.33;;
36501;SDS011;25393;46.108;3.390;2022-12-18T11:06:59;6.22;;;3.25;;
36501;SDS011;25393;46.108;3.390;2022-12-18T11:09:30;5.90;;;3.28;;
36501;SDS011;25393;46.108;3.390;2022-12-18T11:12:06;5.47;;;3.53;;
36501;SDS011;25393;46.108;3.390;2022-12-18T11:14:44;6.28;;;3.20;;
36501;SDS011;25393;46.108;3.390;2022-12-18T11:19:54;6.75;;;3.10;;
36501;SDS011;25393;46.108;3.390;2022-12-18T11:22:27;4.25;;;2.70;;
36501;SDS011;25393;46.108;3.390;2022-12-18T11:28:44;5.68;;;2.42;;
36501;SDS011;25393;46.108;3.390;2022-12-18T11:31:24;5.45;;;2.83;;
36501;SDS011;25393;46.108;3.390;2022-12-18T11:36:48;3.88;;;2.35;;
36501;SDS011;25393;46.108;3.390;2022-12-18T11:39:19;3.97;;;2.70;;
36501;SDS011;25393;46.108;3.390;2022-12-18T11:42:15;4.35;;;2.20;;
36501;SDS011;25393;46.108;3.390;2022-12-18T11:47:39;5.43;;;3.15;;
36501;SDS011;25393;46.108;3.390;2022-12-18T11:53:14;6.43;;;3.28;;
36501;SDS011;25393;46.108;3.390;2022-12-18T12:04:22;9.50;;;5.13;;
36501;SDS011;25393;46.108;3.390;2022-12-18T12:07:19;8.80;;;4.55;;
36501;SDS011;25393;46.108;3.390;2022-12-18T12:10:13;8.65;;;5.45;;
36501;SDS011;25393;46.108;3.390;2022-12-18T12:13:02;12.43;;;5.57;;
36501;SDS011;25393;46.108;3.390;2022-12-18T12:26:22;7.78;;;4.53;;
36501;SDS011;25393;46.108;3.390;2022-12-18T12:40:23;7.22;;;3.78;;
36501;SDS011;25393;46.108;3.390;2022-12-18T12:46:12;3.60;;;2.00;;
36501;SDS011;25393;46.108;3.390;2022-12-18T12:48:43;2.40;;;1.60;;
36501;SDS011;25393;46.108;3.390;2022-12-18T12:51:14;2.75;;;1.85;;
36501;SDS011;25393;46.108;3.390;2022-12-18T12:54:05;2.47;;;1.42;;
36501;SDS011;25393;46.108;3.390;2022-12-18T13:07:47;4.90;;;1.85;;
36501;SDS011;25393;46.108;3.390;2022-12-18T13:10:35;2.47;;;1.20;;
36501;SDS011;25393;46.108;3.390;2022-12-18T13:13:06;1.65;;;1.20;;
36501;SDS011;25393;46.108;3.390;2022-12-18T13:16:03;2.25;;;1.40;;
36501;SDS011;25393;46.108;3.390;2022-12-18T13:18:32;4.22;;;1.20;;
36501;SDS011;25393;46.108;3.390;2022-12-18T13:23:35;2.38;;;1.40;;
36501;SDS011;25393;46.108;3.390;2022-12-18T13:33:44;1.58;;;1.02;;
36501;SDS011;25393;46.108;3.390;2022-12-18T13:36:37;1.65;;;1.15;;
36501;SDS011;25393;46.108;3.390;2022-12-18T13:41:54;2.72;;;1.55;;
36501;SDS011;25393;46.108;3.390;2022-12-18T13:44:59;1.88;;;1.13;;
36501;SDS011;25393;46.108;3.390;2022-12-18T13:47:34;2.17;;;1.30;;
36501;SDS011;25393;46.108;3.390;2022-12-18T13:50:12;2.15;;;1.38;;
36501;SDS011;25393;46.108;3.390;2022-12-18T13:52:49;2.58;;;1.48;;
36501;SDS011;25393;46.108;3.390;2022-12-18T13:55:17;2.78;;;1.33;;
36501;SDS011;25393;46.108;3.390;2022-12-18T13:57:46;2.47;;;1.33;;
36501;SDS011;25393;46.108;3.390;2022-12-18T14:02:46;2.67;;;1.30;;
36501;SDS011;25393;46.108;3.390;2022-12-18T14:05:26;2.60;;;1.52;;
36501;SDS011;25393;46.108;3.390;2022-12-18T14:08:11;2.42;;;1.50;;
36501;SDS011;25393;46.108;3.390;2022-12-18T14:10:45;2.80;;;1.80;;
36501;SDS011;25393;46.108;3.390;2022-12-18T14:13:17;2.65;;;1.35;;
36501;SDS011;25393;46.108;3.390;2022-12-18T14:15:49;1.83;;;1.13;;
36501;SDS011;25393;46.108;3.390;2022-12-18T14:18:19;2.83;;;1.20;;
36501;SDS011;25393;46.108;3.390;2022-12-18T14:20:53;3.25;;;1.50;;
36501;SDS011;25393;46.108;3.390;2022-12-18T14:23:36;5.55;;;1.33;;
36501;SDS011;25393;46.108;3.390;2022-12-18T14:28:47;1.95;;;1.17;;
36501;SDS011;25393;46.108;3.390;2022-12-18T14:31:17;2.55;;;1.40;;
36501;SDS011;25393;46.108;3.390;2022-12-18T14:33:50;3.30;;;1.90;;
36501;SDS011;25393;46.108;3.390;2022-12-18T14:36:19;3.35;;;1.70;;
36501;SDS011;25393;46.108;3.390;2022-12-18T14:38:50;2.67;;;1.60;;
36501;SDS011;25393;46.108;3.390;2022-12-18T14:41:21;3.72;;;1.85;;
36501;SDS011;25393;46.108;3.390;2022-12-18T14:43:50;2.33;;;1.70;;
36501;SDS011;25393;46.108;3.390;2022-12-18T14:46:34;4.70;;;2.17;;
36501;SDS011;25393;46.108;3.390;2022-12-18T14:52:03;6.00;;;2.13;;
36501;SDS011;25393;46.108;3.390;2022-12-18T14:54:33;4.47;;;2.15;;
36501;SDS011;25393;46.108;3.390;2022-12-18T14:57:04;4.53;;;1.70;;
36501;SDS011;25393;46.108;3.390;2022-12-18T14:59:47;3.80;;;1.30;;
36501;SDS011;25393;46.108;3.390;2022-12-18T15:02:23;5.30;;;1.27;;
36501;SDS011;25393;46.108;3.390;2022-12-18T15:05:16;1.55;;;1.10;;
36501;SDS011;25393;46.108;3.390;2022-12-18T15:08:24;6.47;;;2.00;;
36501;SDS011;25393;46.108;3.390;2022-12-18T15:10:58;3.05;;;1.40;;
36501;SDS011;25393;46.108;3.390;2022-12-18T15:13:24;4.70;;;1.85;;
36501;SDS011;25393;46.108;3.390;2022-12-18T15:15:52;3.90;;;1.73;;
36501;SDS011;25393;46.108;3.390;2022-12-18T15:18:23;6.28;;;1.70;;
36501;SDS011;25393;46.108;3.390;2022-12-18T15:21:00;3.20;;;1.65;;
36501;SDS011;25393;46.108;3.390;2022-12-18T15:23:45;2.83;;;1.67;;
36501;SDS011;25393;46.108;3.390;2022-12-18T15:26:14;2.42;;;1.38;;
36501;SDS011;25393;46.108;3.390;2022-12-18T15:28:46;3.45;;;1.75;;
36501;SDS011;25393;46.108;3.390;2022-12-18T15:33:44;2.92;;;1.35;;
36501;SDS011;25393;46.108;3.390;2022-12-18T15:36:28;2.80;;;1.63;;
36501;SDS011;25393;46.108;3.390;2022-12-18T15:39:02;2.55;;;1.38;;
36501;SDS011;25393;46.108;3.390;2022-12-18T15:41:32;1.95;;;1.48;;
36501;SDS011;25393;46.108;3.390;2022-12-18T15:44:21;2.10;;;1.40;;
36501;SDS011;25393;46.108;3.390;2022-12-18T15:46:49;1.75;;;1.17;;
36501;SDS011;25393;46.108;3.390;2022-12-18T15:49:16;2.45;;;1.58;;
36501;SDS011;25393;46.108;3.390;2022-12-18T15:51:42;1.88;;;1.50;;
36501;SDS011;25393;46.108;3.390;2022-12-18T15:54:11;4.85;;;1.45;;
36501;SDS011;25393;46.108;3.390;2022-12-18T15:56:42;2.42;;;1.50;;
36501;SDS011;25393;46.108;3.390;2022-12-18T15:59:27;3.28;;;1.60;;
36501;SDS011;25393;46.108;3.390;2022-12-18T16:01:56;3.85;;;1.75;;
36501;SDS011;25393;46.108;3.390;2022-12-18T16:04:23;5.40;;;1.55;;
36501;SDS011;25393;46.108;3.390;2022-12-18T16:06:50;2.78;;;1.38;;
36501;SDS011;25393;46.108;3.390;2022-12-18T16:09:40;4.32;;;2.00;;
36501;SDS011;25393;46.108;3.390;2022-12-18T16:12:26;4.65;;;1.70;;
36501;SDS011;25393;46.108;3.390;2022-12-18T16:14:52;2.67;;;1.38;;
36501;SDS011;25393;46.108;3.390;2022-12-18T16:17:19;2.58;;;1.40;;
36501;SDS011;25393;46.108;3.390;2022-12-18T16:19:45;4.68;;;2.03;;
36501;SDS011;25393;46.108;3.390;2022-12-18T16:22:28;4.00;;;1.23;;
36501;SDS011;25393;46.108;3.390;2022-12-18T16:24:58;4.25;;;1.40;;
36501;SDS011;25393;46.108;3.390;2022-12-18T16:27:24;4.90;;;1.50;;
36501;SDS011;25393;46.108;3.390;2022-12-18T16:29:51;1.50;;;1.13;;
36501;SDS011;25393;46.108;3.390;2022-12-18T16:32:19;6.20;;;1.50;;
36501;SDS011;25393;46.108;3.390;2022-12-18T16:34:48;4.43;;;1.90;;
36501;SDS011;25393;46.108;3.390;2022-12-18T16:37:15;3.13;;;1.52;;
36501;SDS011;25393;46.108;3.390;2022-12-18T16:39:42;2.93;;;1.50;;
36501;SDS011;25393;46.108;3.390;2022-12-18T16:44:40;1.52;;;1.15;;
36501;SDS011;25393;46.108;3.390;2022-12-18T16:47:07;5.32;;;1.63;;
36501;SDS011;25393;46.108;3.390;2022-12-18T16:49:36;2.25;;;1.73;;
36501;SDS011;25393;46.108;3.390;2022-12-18T16:52:03;3.90;;;1.48;;
36501;SDS011;25393;46.108;3.390;2022-12-18T16:54:33;6.50;;;2.95;;
36501;SDS011;25393;46.108;3.390;2022-12-18T16:57:02;3.30;;;2.00;;
36501;SDS011;25393;46.108;3.390;2022-12-18T16:59:34;2.93;;;1.40;;
36501;SDS011;25393;46.108;3.390;2022-12-18T17:02:04;5.63;;;1.80;;
36501;SDS011;25393;46.108;3.390;2022-12-18T17:04:31;2.42;;;1.50;;
36501;SDS011;25393;46.108;3.390;2022-12-18T17:06:59;2.97;;;1.52;;
36501;SDS011;25393;46.108;3.390;2022-12-18T17:09:26;1.83;;;1.27;;
36501;SDS011;25393;46.108;3.390;2022-12-18T17:11:53;2.17;;;1.30;;